createdAt,value
2024-03-16T00:02:04.823Z,11.93
2024-03-16T00:04:31.552Z,11.92
2024-03-16T00:06:59.273Z,11.91
2024-03-16T00:09:26.042Z,11.90
2024-03-16T00:11:52.870Z,11.88
2024-03-16T00:14:19.315Z,11.88
2024-03-16T00:16:45.771Z,11.87
2024-03-16T00:19:12.477Z,11.88
2024-03-16T00:21:39.069Z,11.88
2024-03-16T00:24:08.350Z,11.86
2024-03-16T00:26:34.979Z,11.85
2024-03-16T00:29:01.578Z,11.85
2024-03-16T00:31:28.509Z,11.86
2024-03-16T00:33:55.014Z,11.86
2024-03-16T00:36:23.901Z,11.85
2024-03-16T00:38:51.783Z,11.85
2024-03-16T00:41:18.190Z,11.83
2024-03-16T00:43:44.850Z,11.82
2024-03-16T00:46:11.528Z,11.82
2024-03-16T00:48:38.304Z,11.81
2024-03-16T00:51:04.877Z,11.81
2024-03-16T00:53:31.442Z,11.81
2024-03-16T00:55:58.603Z,11.81
2024-03-16T00:58:25.056Z,11.81
2024-03-16T01:00:52.909Z,11.82
2024-03-16T01:03:19.588Z,11.81
2024-03-16T01:05:52.078Z,11.81
2024-03-16T01:08:18.717Z,11.81
2024-03-16T01:10:45.435Z,11.81
2024-03-16T01:13:12.028Z,11.80
2024-03-16T01:15:38.548Z,11.81
2024-03-16T01:18:05.156Z,11.80
2024-03-16T01:20:31.779Z,11.78
2024-03-16T01:22:59.797Z,11.77
2024-03-16T01:25:26.376Z,11.75
2024-03-16T01:27:52.799Z,11.74
2024-03-16T01:30:22.573Z,11.72
2024-03-16T01:32:49.025Z,11.70
2024-03-16T01:35:15.656Z,11.70
2024-03-16T01:37:42.160Z,11.70
2024-03-16T01:40:10.901Z,11.69
2024-03-16T01:42:37.773Z,11.67
2024-03-16T01:45:11.591Z,11.67
2024-03-16T01:47:38.910Z,11.66
2024-03-16T01:50:06.074Z,11.65
2024-03-16T01:52:33.762Z,11.63
2024-03-16T01:55:00.593Z,11.64
2024-03-16T01:57:27.160Z,11.62
2024-03-16T01:59:53.683Z,11.61
2024-03-16T02:02:34.896Z,11.60
2024-03-16T02:05:02.660Z,11.58
2024-03-16T02:07:29.037Z,11.57
2024-03-16T02:09:55.717Z,11.56
2024-03-16T02:12:22.365Z,11.57
2024-03-16T02:14:49.054Z,11.57
2024-03-16T02:17:15.503Z,11.58
2024-03-16T02:19:41.928Z,11.58
2024-03-16T02:22:10.630Z,11.56
2024-03-16T02:24:37.385Z,11.54
2024-03-16T02:27:04.117Z,11.51
2024-03-16T02:29:33.889Z,11.51
2024-03-16T02:32:00.629Z,11.52
2024-03-16T02:34:27.289Z,11.52
2024-03-16T02:36:54.001Z,11.53
2024-03-16T02:39:23.372Z,11.53
2024-03-16T02:41:49.764Z,11.53
2024-03-16T02:44:16.351Z,11.52
2024-03-16T02:46:42.808Z,11.50
2024-03-16T02:49:09.260Z,11.48
2024-03-16T02:51:35.934Z,11.46
2024-03-16T02:54:02.957Z,11.45
2024-03-16T02:56:29.540Z,11.42
2024-03-16T02:58:56.007Z,11.41
2024-03-16T03:01:23.047Z,11.41
2024-03-16T03:03:49.693Z,11.38
2024-03-16T03:06:16.319Z,11.37
2024-03-16T03:08:44.762Z,11.37
2024-03-16T03:11:12.579Z,11.35
2024-03-16T03:13:39.140Z,11.32
2024-03-16T03:16:05.832Z,11.31
2024-03-16T03:18:32.299Z,11.30
2024-03-16T03:20:59.166Z,11.31
2024-03-16T03:23:25.995Z,11.30
2024-03-16T03:25:53.387Z,11.29
2024-03-16T03:28:20.095Z,11.29
2024-03-16T03:30:49.913Z,11.29
2024-03-16T03:33:16.481Z,11.26
2024-03-16T03:35:43.092Z,11.22
2024-03-16T03:38:09.580Z,11.20
2024-03-16T03:40:36.160Z,11.15
2024-03-16T03:43:02.696Z,11.11
2024-03-16T03:45:39.452Z,11.07
2024-03-16T03:48:26.712Z,11.05
2024-03-16T03:50:57.983Z,11.03
2024-03-16T03:53:26.688Z,11.01
2024-03-16T03:55:54.191Z,11.02
2024-03-16T03:58:21.755Z,11.02
2024-03-16T04:00:49.450Z,11.01
2024-03-16T04:03:16.893Z,11.01
2024-03-16T04:05:47.016Z,11.01
2024-03-16T04:08:13.431Z,11.01
2024-03-16T04:10:40.192Z,11.01
2024-03-16T04:13:06.667Z,10.98
2024-03-16T04:15:33.219Z,10.94
2024-03-16T04:17:59.937Z,10.89
2024-03-16T04:20:27.038Z,10.84
2024-03-16T04:22:53.949Z,10.81
2024-03-16T04:25:22.473Z,10.78
2024-03-16T04:27:49.812Z,10.76
2024-03-16T04:30:16.420Z,10.75
2024-03-16T04:32:43.065Z,10.73
2024-03-16T04:35:09.733Z,10.72
2024-03-16T04:37:36.257Z,10.71
2024-03-16T04:40:07.037Z,10.69
2024-03-16T04:42:33.815Z,10.68
2024-03-16T04:45:00.940Z,10.66
2024-03-16T04:47:27.609Z,10.65
2024-03-16T04:49:54.489Z,10.63
2024-03-16T04:52:20.925Z,10.62
2024-03-16T04:54:47.560Z,10.59
2024-03-16T04:57:14.227Z,10.55
2024-03-16T04:59:40.975Z,10.54
2024-03-16T05:02:08.186Z,10.53
2024-03-16T05:04:35.062Z,10.53
2024-03-16T05:07:01.628Z,10.53
2024-03-16T05:09:28.359Z,10.54
2024-03-16T05:11:55.784Z,10.54
2024-03-16T05:14:22.487Z,10.54
2024-03-16T05:16:48.880Z,10.55
2024-03-16T05:19:15.416Z,10.54
2024-03-16T05:21:43.606Z,10.53
2024-03-16T05:24:10.374Z,10.53
2024-03-16T05:26:37.832Z,10.54
2024-03-16T05:29:04.330Z,10.54
2024-03-16T05:31:32.807Z,10.54
2024-03-16T05:33:59.355Z,10.54
2024-03-16T05:36:25.826Z,10.54
2024-03-16T05:38:53.257Z,10.54
2024-03-16T05:41:19.761Z,10.53
2024-03-16T05:43:47.066Z,10.52
2024-03-16T05:46:13.853Z,10.51
2024-03-16T05:48:40.379Z,10.49
2024-03-16T05:51:07.388Z,10.47
2024-03-16T05:53:33.879Z,10.46
2024-03-16T05:56:00.401Z,10.47
2024-03-16T05:58:27.060Z,10.46
2024-03-16T06:00:53.832Z,10.46
2024-03-16T06:03:20.611Z,10.46
2024-03-16T06:05:48.590Z,10.47
2024-03-16T06:08:15.290Z,10.46
2024-03-16T06:10:42.626Z,10.46
2024-03-16T06:13:11.594Z,10.50
2024-03-16T06:15:40.303Z,10.51
2024-03-16T06:18:07.058Z,10.51
2024-03-16T06:20:33.576Z,10.52
2024-03-16T06:22:59.972Z,10.55
2024-03-16T06:25:26.969Z,10.57
2024-03-16T06:27:55.341Z,10.60
2024-03-16T06:30:31.661Z,10.63
2024-03-16T06:33:09.636Z,10.66
2024-03-16T06:35:42.656Z,10.68
2024-03-16T06:38:09.694Z,10.71
2024-03-16T06:40:36.338Z,10.72
2024-03-16T06:43:03.613Z,10.74
2024-03-16T06:45:30.132Z,10.77
2024-03-16T06:47:56.805Z,10.80
2024-03-16T06:50:23.704Z,10.83
2024-03-16T06:52:50.383Z,10.84
2024-03-16T06:55:19.612Z,10.87
2024-03-16T06:57:46.711Z,10.93
2024-03-16T07:00:15.272Z,11.00
2024-03-16T07:02:41.736Z,11.08
2024-03-16T07:05:10.881Z,11.18
2024-03-16T07:07:37.410Z,11.28
2024-03-16T07:10:10.964Z,11.36
2024-03-16T07:12:37.595Z,11.41
2024-03-16T07:15:07.135Z,11.42
2024-03-16T07:17:33.704Z,11.41
2024-03-16T07:20:00.362Z,11.40
2024-03-16T07:22:28.222Z,11.41
2024-03-16T07:24:55.648Z,11.45
2024-03-16T07:27:22.170Z,11.52
2024-03-16T07:29:48.562Z,11.60
2024-03-16T07:32:14.956Z,11.64
2024-03-16T07:34:41.380Z,11.67
2024-03-16T07:37:08.022Z,11.67
2024-03-16T07:39:34.492Z,11.63
2024-03-16T07:42:00.973Z,11.58
2024-03-16T07:44:27.640Z,11.55
2024-03-16T07:46:54.923Z,11.53
2024-03-16T07:49:21.617Z,11.55
2024-03-16T07:51:48.243Z,11.61
2024-03-16T07:54:16.283Z,11.68
2024-03-16T07:56:42.746Z,11.72
2024-03-16T07:59:10.775Z,11.75
2024-03-16T08:01:37.757Z,11.77
2024-03-16T08:04:04.893Z,11.80
2024-03-16T08:06:31.469Z,11.87
2024-03-16T08:08:58.147Z,12.00
2024-03-16T08:11:24.862Z,12.12
2024-03-16T08:13:51.490Z,12.28
2024-03-16T08:16:18.012Z,12.43
2024-03-16T08:18:46.897Z,12.49
2024-03-16T08:21:15.557Z,12.54
2024-03-16T08:23:42.228Z,12.55
2024-03-16T08:26:10.177Z,12.56
2024-03-16T08:28:36.780Z,12.58
2024-03-16T08:31:03.726Z,12.65
2024-03-16T08:33:30.714Z,12.65
2024-03-16T08:35:57.290Z,12.71
2024-03-16T08:38:25.473Z,12.81
2024-03-16T08:40:51.845Z,12.83
2024-03-16T08:43:18.438Z,12.84
2024-03-16T08:45:45.219Z,12.91
2024-03-16T08:48:11.673Z,13.00
2024-03-16T08:50:38.991Z,13.07
2024-03-16T08:53:05.475Z,13.18
2024-03-16T08:55:32.086Z,13.28
2024-03-16T08:57:58.749Z,13.35
2024-03-16T09:00:26.207Z,13.40
2024-03-16T09:02:53.659Z,13.48
2024-03-16T09:05:21.989Z,13.56
2024-03-16T09:07:48.883Z,13.61
2024-03-16T09:10:16.090Z,13.75
2024-03-16T09:12:42.607Z,13.92
2024-03-16T09:15:09.788Z,14.05
2024-03-16T09:17:37.498Z,14.11
2024-03-16T09:20:11.897Z,14.31
2024-03-16T09:22:38.923Z,14.57
2024-03-16T09:25:06.792Z,14.71
2024-03-16T09:27:36.624Z,15.10
2024-03-16T09:30:09.756Z,15.38
2024-03-16T09:32:37.635Z,15.62
2024-03-16T09:35:08.524Z,15.75
2024-03-16T09:37:35.360Z,15.72
2024-03-16T09:40:02.028Z,15.69
2024-03-16T09:42:29.627Z,15.70
2024-03-16T09:44:58.396Z,16.11
2024-03-16T09:47:26.693Z,16.28
2024-03-16T09:49:53.227Z,16.26
2024-03-16T09:52:22.467Z,16.26
2024-03-16T09:54:48.964Z,16.24
2024-03-16T09:57:16.858Z,16.13
2024-03-16T09:59:49.037Z,15.94
2024-03-16T10:02:24.881Z,15.80
2024-03-16T10:04:51.585Z,15.88
2024-03-16T10:07:18.173Z,15.97
2024-03-16T10:09:54.244Z,16.02
2024-03-16T10:12:22.493Z,15.88
2024-03-16T10:15:10.373Z,15.71
2024-03-16T10:17:40.225Z,15.58
2024-03-16T10:20:16.679Z,15.41
2024-03-16T10:22:47.041Z,15.18
2024-03-16T10:25:15.008Z,14.89
2024-03-16T10:27:41.648Z,14.60
2024-03-16T10:30:12.005Z,14.28
2024-03-16T10:32:42.311Z,13.96
2024-03-16T10:35:15.367Z,13.67
2024-03-16T10:37:43.497Z,13.40
2024-03-16T10:40:17.676Z,13.22
2024-03-16T10:42:45.500Z,13.18
2024-03-16T10:45:17.550Z,13.24
2024-03-16T10:47:51.625Z,13.42
2024-03-16T10:50:21.093Z,13.88
2024-03-16T10:52:49.289Z,14.85
2024-03-16T10:55:23.086Z,16.95
2024-03-16T10:57:50.521Z,19.19
2024-03-16T11:00:36.518Z,20.95
2024-03-16T11:03:13.308Z,22.85
2024-03-16T11:05:49.347Z,24.00
2024-03-16T11:08:16.012Z,23.93
2024-03-16T11:10:44.093Z,23.31
2024-03-16T11:13:18.614Z,22.52
2024-03-16T11:15:47.968Z,22.17
2024-03-16T11:18:17.377Z,21.60
2024-03-16T11:20:56.994Z,20.76
2024-03-16T11:23:33.332Z,19.94
2024-03-16T11:26:28.588Z,19.24
2024-03-16T11:29:01.034Z,18.52
2024-03-16T11:31:39.689Z,17.97
2024-03-16T11:34:12.290Z,17.88
2024-03-16T11:36:48.358Z,17.69
2024-03-16T11:39:17.638Z,17.27
2024-03-16T11:41:46.103Z,17.00
2024-03-16T11:44:17.376Z,17.11
2024-03-16T11:46:46.854Z,17.25
2024-03-16T11:49:16.016Z,17.14
2024-03-16T11:51:43.535Z,17.21
2024-03-16T11:54:11.416Z,17.48
2024-03-16T11:56:38.348Z,17.57
2024-03-16T11:59:05.364Z,17.47
2024-03-16T12:01:35.820Z,17.58
2024-03-16T12:04:02.828Z,17.66
2024-03-16T12:06:29.958Z,17.24
2024-03-16T12:08:56.654Z,17.39
2024-03-16T12:11:24.495Z,19.65
2024-03-16T12:13:53.817Z,20.90
2024-03-16T12:16:21.652Z,20.45
2024-03-16T12:18:48.347Z,19.74
2024-03-16T12:21:14.846Z,20.13
2024-03-16T12:23:41.733Z,20.52
2024-03-16T12:26:10.753Z,20.19
2024-03-16T12:28:37.366Z,19.69
2024-03-16T12:31:04.031Z,19.56
2024-03-16T12:33:33.051Z,19.39
2024-03-16T12:35:59.487Z,18.73
2024-03-16T12:38:26.103Z,18.24
2024-03-16T12:40:52.654Z,18.57
2024-03-16T12:43:20.233Z,20.79
2024-03-16T12:45:46.706Z,24.19
2024-03-16T12:48:13.447Z,26.96
2024-03-16T12:50:39.859Z,27.16
2024-03-16T12:53:08.930Z,27.55
2024-03-16T12:55:35.605Z,28.38
2024-03-16T12:58:02.538Z,29.88
2024-03-16T13:00:28.921Z,30.33
2024-03-16T13:02:55.340Z,30.02
2024-03-16T13:05:22.090Z,31.43
2024-03-16T13:07:49.170Z,32.34
2024-03-16T13:10:15.714Z,32.16
2024-03-16T13:12:42.140Z,32.79
2024-03-16T13:15:09.863Z,31.94
2024-03-16T13:17:36.539Z,30.60
2024-03-16T13:20:04.252Z,29.13
2024-03-16T13:22:30.620Z,27.85
2024-03-16T13:24:56.949Z,26.63
2024-03-16T13:27:23.592Z,25.43
2024-03-16T13:29:49.920Z,24.29
2024-03-16T13:32:16.351Z,23.24
2024-03-16T13:34:42.850Z,22.28
2024-03-16T13:37:09.278Z,21.45
2024-03-16T13:39:38.552Z,20.74
2024-03-16T13:42:07.075Z,20.18
2024-03-16T13:44:35.110Z,19.73
2024-03-16T13:47:03.416Z,19.54
2024-03-16T13:49:32.458Z,19.20
2024-03-16T13:52:00.470Z,19.05
2024-03-16T13:54:26.956Z,18.84
2024-03-16T13:56:53.583Z,18.63
2024-03-16T13:59:20.364Z,18.35
2024-03-16T14:01:47.225Z,17.98
2024-03-16T14:04:13.742Z,17.66
2024-03-16T14:06:40.350Z,17.43
2024-03-16T14:09:07.795Z,17.33
2024-03-16T14:11:35.526Z,17.37
2024-03-16T14:14:02.184Z,17.38
2024-03-16T14:16:28.821Z,17.46
2024-03-16T14:18:55.425Z,17.55
2024-03-16T14:21:21.956Z,17.51
2024-03-16T14:23:49.237Z,17.44
2024-03-16T14:26:15.649Z,17.36
2024-03-16T14:28:42.425Z,17.29
2024-03-16T14:31:10.152Z,17.40
2024-03-16T14:33:39.358Z,18.26
2024-03-16T14:36:07.016Z,19.61
2024-03-16T14:38:34.860Z,20.23
2024-03-16T14:41:01.804Z,20.45
2024-03-16T14:43:29.116Z,20.80
2024-03-16T14:45:55.606Z,20.91
2024-03-16T14:48:22.070Z,20.82
2024-03-16T14:50:51.882Z,20.58
2024-03-16T14:53:18.490Z,20.20
2024-03-16T14:55:45.337Z,19.78
2024-03-16T14:58:12.250Z,19.29
2024-03-16T15:00:39.254Z,18.84
2024-03-16T15:03:07.291Z,18.36
2024-03-16T15:05:35.811Z,17.87
2024-03-16T15:08:02.730Z,17.44
2024-03-16T15:10:29.230Z,17.07
2024-03-16T15:12:55.741Z,16.78
2024-03-16T15:15:23.465Z,16.58
2024-03-16T15:17:50.163Z,16.49
2024-03-16T15:20:16.680Z,16.38
2024-03-16T15:22:44.871Z,16.25
2024-03-16T15:25:19.808Z,16.13
2024-03-16T15:27:49.163Z,16.34
2024-03-16T15:30:15.697Z,16.79
2024-03-16T15:32:42.118Z,17.09
2024-03-16T15:35:10.983Z,17.04
2024-03-16T15:37:38.475Z,16.78
2024-03-16T15:40:05.641Z,16.45
2024-03-16T15:42:33.087Z,16.14
2024-03-16T15:45:00.252Z,15.85
2024-03-16T15:47:30.708Z,15.62
2024-03-16T15:49:57.202Z,15.33
2024-03-16T15:52:23.722Z,15.04
2024-03-16T15:54:50.102Z,14.78
2024-03-16T15:57:17.187Z,14.57
2024-03-16T15:59:43.519Z,14.43
2024-03-16T16:02:10.661Z,14.26
2024-03-16T16:04:37.119Z,14.10
2024-03-16T16:07:04.502Z,13.96
2024-03-16T16:09:34.445Z,13.84
2024-03-16T16:12:00.884Z,13.73
2024-03-16T16:14:27.360Z,13.63
2024-03-16T16:16:53.804Z,13.54
2024-03-16T16:19:20.176Z,13.46
2024-03-16T16:21:46.633Z,13.37
2024-03-16T16:24:13.586Z,13.29
2024-03-16T16:26:42.154Z,13.19
2024-03-16T16:29:11.430Z,13.07
2024-03-16T16:31:37.901Z,12.97
2024-03-16T16:34:05.846Z,12.89
2024-03-16T16:36:35.183Z,12.80
2024-03-16T16:39:01.596Z,12.72
2024-03-16T16:41:27.989Z,12.64
2024-03-16T16:43:54.660Z,12.57
2024-03-16T16:46:21.206Z,12.50
2024-03-16T16:48:48.038Z,12.43
2024-03-16T16:51:14.505Z,12.38
2024-03-16T16:53:40.960Z,12.35
2024-03-16T16:56:07.331Z,12.32
2024-03-16T16:58:33.699Z,12.29
2024-03-16T17:01:02.888Z,12.27
2024-03-16T17:03:30.661Z,12.24
2024-03-16T17:06:00.234Z,12.16
2024-03-16T17:08:26.776Z,12.13
2024-03-16T17:10:54.332Z,12.07
2024-03-16T17:13:20.894Z,12.02
2024-03-16T17:15:47.529Z,11.95
2024-03-16T17:18:14.061Z,11.88
2024-03-16T17:20:41.853Z,11.81
2024-03-16T17:23:08.273Z,11.75
2024-03-16T17:25:35.070Z,11.69
2024-03-16T17:28:01.736Z,11.63
2024-03-16T17:30:28.114Z,11.59
2024-03-16T17:32:54.521Z,11.57
2024-03-16T17:35:21.017Z,11.55
2024-03-16T17:37:47.746Z,11.52
2024-03-16T17:40:14.843Z,11.50
2024-03-16T17:42:41.199Z,11.49
2024-03-16T17:45:08.202Z,11.46
2024-03-16T17:47:34.878Z,11.44
2024-03-16T17:50:01.505Z,11.45
2024-03-16T17:52:27.953Z,11.43
2024-03-16T17:54:55.102Z,11.39
2024-03-16T17:57:21.588Z,11.34
2024-03-16T17:59:48.279Z,11.30
2024-03-16T18:02:14.977Z,11.25
2024-03-16T18:04:41.682Z,11.20
2024-03-16T18:07:10.584Z,11.14
2024-03-16T18:09:37.131Z,11.08
2024-03-16T18:12:08.223Z,11.01
2024-03-16T18:14:35.709Z,10.96
2024-03-16T18:17:02.297Z,10.94
2024-03-16T18:19:31.335Z,10.92
2024-03-16T18:21:58.003Z,10.91
2024-03-16T18:24:25.021Z,10.90
2024-03-16T18:26:51.362Z,10.90
2024-03-16T18:29:18.257Z,10.89
2024-03-16T18:31:45.262Z,10.86
2024-03-16T18:34:11.824Z,10.85
2024-03-16T18:36:38.315Z,10.83
2024-03-16T18:39:10.562Z,10.81
2024-03-16T18:41:40.004Z,10.77
2024-03-16T18:44:08.641Z,10.74
2024-03-16T18:46:36.703Z,10.71
2024-03-16T18:49:07.265Z,10.68
2024-03-16T18:51:35.219Z,10.65
2024-03-16T18:54:02.341Z,10.61
2024-03-16T18:56:29.081Z,10.58
2024-03-16T18:58:56.074Z,10.56
2024-03-16T19:01:22.455Z,10.52
2024-03-16T19:03:49.774Z,10.49
2024-03-16T19:06:16.404Z,10.46
2024-03-16T19:08:43.114Z,10.44
2024-03-16T19:11:14.117Z,10.41
2024-03-16T19:13:40.761Z,10.38
2024-03-16T19:16:07.345Z,10.36
2024-03-16T19:18:34.698Z,10.34
2024-03-16T19:21:01.081Z,10.31
2024-03-16T19:23:27.458Z,10.29
2024-03-16T19:25:54.406Z,10.29
2024-03-16T19:28:21.804Z,10.30
2024-03-16T19:30:48.242Z,10.29
2024-03-16T19:33:14.689Z,10.28
2024-03-16T19:35:41.114Z,10.28
2024-03-16T19:38:09.529Z,10.30
2024-03-16T19:40:36.442Z,10.31
2024-03-16T19:43:06.235Z,10.33
2024-03-16T19:45:32.944Z,10.34
2024-03-16T19:47:59.311Z,10.36
2024-03-16T19:50:26.439Z,10.38
2024-03-16T19:52:53.524Z,10.39
2024-03-16T19:55:21.532Z,10.41
2024-03-16T19:57:47.977Z,10.42
2024-03-16T20:00:20.336Z,10.42
2024-03-16T20:02:48.008Z,10.44
2024-03-16T20:05:15.034Z,10.44
2024-03-16T20:07:42.149Z,10.44
2024-03-16T20:10:09.720Z,10.45
2024-03-16T20:12:36.124Z,10.44
2024-03-16T20:15:05.260Z,10.42
2024-03-16T20:17:33.164Z,10.39
2024-03-16T20:20:03.092Z,10.36
2024-03-16T20:22:29.733Z,10.34
2024-03-16T20:24:56.174Z,10.32
2024-03-16T20:27:22.594Z,10.29
2024-03-16T20:29:49.242Z,10.26
2024-03-16T20:32:15.717Z,10.22
2024-03-16T20:34:42.825Z,10.19
2024-03-16T20:37:09.187Z,10.18
2024-03-16T20:39:36.082Z,10.16
2024-03-16T20:42:02.507Z,10.16
2024-03-16T20:44:28.909Z,10.16
2024-03-16T20:46:55.347Z,10.17
2024-03-16T20:49:21.885Z,10.18
2024-03-16T20:51:48.619Z,10.18
2024-03-16T20:54:15.118Z,10.19
2024-03-16T20:56:43.355Z,10.18
2024-03-16T20:59:09.892Z,10.16
2024-03-16T21:01:36.400Z,10.14
2024-03-16T21:04:04.872Z,10.15
2024-03-16T21:06:31.850Z,10.15
2024-03-16T21:08:58.304Z,10.15
2024-03-16T21:11:29.015Z,10.16
2024-03-16T21:13:56.436Z,10.16
2024-03-16T21:16:22.940Z,10.18
2024-03-16T21:18:49.760Z,10.19
2024-03-16T21:21:16.183Z,10.18
2024-03-16T21:23:43.409Z,10.17
2024-03-16T21:26:11.314Z,10.15
2024-03-16T21:28:38.592Z,10.15
2024-03-16T21:31:06.610Z,10.12
2024-03-16T21:33:32.968Z,10.08
2024-03-16T21:35:59.632Z,10.06
2024-03-16T21:38:26.089Z,10.01
2024-03-16T21:40:52.589Z,9.99
2024-03-16T21:43:19.205Z,9.95
2024-03-16T21:45:45.625Z,9.91
2024-03-16T21:48:13.429Z,9.88
2024-03-16T21:50:42.251Z,9.84
2024-03-16T21:53:09.525Z,9.80
2024-03-16T21:55:35.903Z,9.75
2024-03-16T21:58:02.329Z,9.74
2024-03-16T22:00:28.827Z,9.72
2024-03-16T22:02:55.332Z,9.70
2024-03-16T22:05:21.788Z,9.67
2024-03-16T22:07:48.486Z,9.66
2024-03-16T22:10:14.840Z,9.64
2024-03-16T22:12:41.673Z,9.62
2024-03-16T22:15:09.121Z,9.61
2024-03-16T22:17:36.438Z,9.60
2024-03-16T22:20:03.719Z,9.60
2024-03-16T22:22:30.789Z,9.60
2024-03-16T22:24:58.452Z,9.60
2024-03-16T22:27:24.904Z,9.61
2024-03-16T22:29:51.545Z,9.61
2024-03-16T22:32:19.183Z,9.62
2024-03-16T22:34:46.248Z,9.62
2024-03-16T22:37:13.338Z,9.62
2024-03-16T22:39:39.848Z,9.63
2024-03-16T22:42:07.100Z,9.64
2024-03-16T22:44:34.243Z,9.65
2024-03-16T22:47:01.531Z,9.66
2024-03-16T22:49:28.002Z,9.68
2024-03-16T22:51:54.573Z,9.67
2024-03-16T22:54:21.330Z,9.67
2024-03-16T22:56:48.220Z,9.69
2024-03-16T22:59:14.710Z,9.69
2024-03-16T23:01:41.790Z,9.68
2024-03-16T23:04:08.697Z,9.67
2024-03-16T23:06:35.141Z,9.66
2024-03-16T23:09:01.575Z,9.67
2024-03-16T23:11:28.382Z,9.66
2024-03-16T23:13:56.142Z,9.66
2024-03-16T23:16:22.763Z,9.66
2024-03-16T23:18:50.407Z,9.66
2024-03-16T23:21:16.799Z,9.67
2024-03-16T23:23:46.825Z,9.66
2024-03-16T23:26:16.354Z,9.66
2024-03-16T23:28:43.536Z,9.65
2024-03-16T23:31:10.227Z,9.65
2024-03-16T23:33:37.603Z,9.64
2024-03-16T23:36:04.556Z,9.64
2024-03-16T23:38:32.487Z,9.64
2024-03-16T23:41:03.681Z,9.64
2024-03-16T23:43:31.536Z,9.64
2024-03-16T23:45:58.297Z,9.65
2024-03-16T23:48:24.795Z,9.64
2024-03-16T23:50:51.393Z,9.63
2024-03-16T23:53:18.910Z,9.60
2024-03-16T23:55:45.385Z,9.57
2024-03-16T23:58:13.198Z,9.52
